sensor_id;sensor_type;location;lat;lon;timestamp;temperature;humidity
19017;DHT22;9641;51.494;6.670;2022-09-29T00:01:34;7.60;99.90
19017;DHT22;9641;51.494;6.670;2022-09-29T00:04:03;7.50;99.90
19017;DHT22;9641;51.494;6.670;2022-09-29T00:06:30;7.50;99.90
19017;DHT22;9641;51.494;6.670;2022-09-29T00:08:58;7.50;99.90
19017;DHT22;9641;51.494;6.670;2022-09-29T00:11:25;7.50;99.90
19017;DHT22;9641;51.494;6.670;2022-09-29T00:13:53;7.50;99.90
19017;DHT22;9641;51.494;6.670;2022-09-29T00:16:20;7.50;99.90
19017;DHT22;9641;51.494;6.670;2022-09-29T00:18:48;7.50;99.90
19017;DHT22;9641;51.494;6.670;2022-09-29T00:21:17;7.50;99.90
19017;DHT22;9641;51.494;6.670;2022-09-29T00:23:45;7.50;99.90
19017;DHT22;9641;51.494;6.670;2022-09-29T00:26:15;7.50;99.90
19017;DHT22;9641;51.494;6.670;2022-09-29T00:28:46;7.50;99.90
19017;DHT22;9641;51.494;6.670;2022-09-29T00:31:13;7.40;99.90
19017;DHT22;9641;51.494;6.670;2022-09-29T00:33:40;7.40;99.90
19017;DHT22;9641;51.494;6.670;2022-09-29T00:36:11;7.40;99.90
19017;DHT22;9641;51.494;6.670;2022-09-29T00:38:40;7.40;99.90
19017;DHT22;9641;51.494;6.670;2022-09-29T00:41:10;7.30;99.90
19017;DHT22;9641;51.494;6.670;2022-09-29T00:43:50;7.30;99.90
19017;DHT22;9641;51.494;6.670;2022-09-29T00:46:21;7.30;99.90
19017;DHT22;9641;51.494;6.670;2022-09-29T00:48:57;7.40;99.90
19017;DHT22;9641;51.494;6.670;2022-09-29T00:51:32;7.40;99.90
19017;DHT22;9641;51.494;6.670;2022-09-29T00:54:02;7.40;99.90
19017;DHT22;9641;51.494;6.670;2022-09-29T00:56:39;7.30;99.90
19017;DHT22;9641;51.494;6.670;2022-09-29T00:59:21;7.30;99.90
19017;DHT22;9641;51.494;6.670;2022-09-29T01:01:59;7.30;99.90
19017;DHT22;9641;51.494;6.670;2022-09-29T01:04:27;7.40;99.90
19017;DHT22;9641;51.494;6.670;2022-09-29T01:06:56;7.40;99.90
19017;DHT22;9641;51.494;6.670;2022-09-29T01:09:26;7.40;99.90
19017;DHT22;9641;51.494;6.670;2022-09-29T01:11:54;7.40;99.90
19017;DHT22;9641;51.494;6.670;2022-09-29T01:14:25;7.30;99.90
19017;DHT22;9641;51.494;6.670;2022-09-29T01:16:53;7.30;99.90
19017;DHT22;9641;51.494;6.670;2022-09-29T01:19:34;7.30;99.90
19017;DHT22;9641;51.494;6.670;2022-09-29T01:22:13;7.30;99.90
19017;DHT22;9641;51.494;6.670;2022-09-29T01:25:06;7.30;99.90
19017;DHT22;9641;51.494;6.670;2022-09-29T01:27:55;7.40;99.90
19017;DHT22;9641;51.494;6.670;2022-09-29T01:30:57;7.40;99.90
19017;DHT22;9641;51.494;6.670;2022-09-29T01:33:33;7.30;99.90
19017;DHT22;9641;51.494;6.670;2022-09-29T01:36:07;7.30;99.90
19017;DHT22;9641;51.494;6.670;2022-09-29T01:38:52;7.30;99.90
19017;DHT22;9641;51.494;6.670;2022-09-29T01:41:25;7.20;99.90
19017;DHT22;9641;51.494;6.670;2022-09-29T01:44:04;7.10;99.90
19017;DHT22;9641;51.494;6.670;2022-09-29T01:46:36;7.10;99.90
19017;DHT22;9641;51.494;6.670;2022-09-29T01:49:05;7.10;99.90
19017;DHT22;9641;51.494;6.670;2022-09-29T01:51:39;7.00;99.90
19017;DHT22;9641;51.494;6.670;2022-09-29T01:54:12;7.00;99.90
19017;DHT22;9641;51.494;6.670;2022-09-29T01:56:44;6.90;99.90
19017;DHT22;9641;51.494;6.670;2022-09-29T01:59:17;6.90;99.90
19017;DHT22;9641;51.494;6.670;2022-09-29T02:01:49;6.90;99.90
19017;DHT22;9641;51.494;6.670;2022-09-29T02:04:19;6.90;99.90
19017;DHT22;9641;51.494;6.670;2022-09-29T02:06:52;6.90;99.90
19017;DHT22;9641;51.494;6.670;2022-09-29T02:09:24;6.90;99.90
19017;DHT22;9641;51.494;6.670;2022-09-29T02:11:56;6.90;99.90
19017;DHT22;9641;51.494;6.670;2022-09-29T02:14:24;6.80;99.90
19017;DHT22;9641;51.494;6.670;2022-09-29T02:16:56;6.90;99.90
19017;DHT22;9641;51.494;6.670;2022-09-29T02:19:27;6.80;99.90
19017;DHT22;9641;51.494;6.670;2022-09-29T02:21:55;6.80;99.90
19017;DHT22;9641;51.494;6.670;2022-09-29T02:24:22;6.80;99.90
19017;DHT22;9641;51.494;6.670;2022-09-29T02:26:50;6.80;99.90
19017;DHT22;9641;51.494;6.670;2022-09-29T02:29:18;6.80;99.90
19017;DHT22;9641;51.494;6.670;2022-09-29T02:31:46;6.70;99.90
19017;DHT22;9641;51.494;6.670;2022-09-29T02:34:16;6.70;99.90
19017;DHT22;9641;51.494;6.670;2022-09-29T02:36:51;6.70;99.90
19017;DHT22;9641;51.494;6.670;2022-09-29T02:39:29;6.70;99.90
19017;DHT22;9641;51.494;6.670;2022-09-29T02:42:07;6.70;99.90
19017;DHT22;9641;51.494;6.670;2022-09-29T02:45:07;6.80;99.90
19017;DHT22;9641;51.494;6.670;2022-09-29T02:47:47;6.90;99.90
19017;DHT22;9641;51.494;6.670;2022-09-29T02:53:23;7.10;99.90
19017;DHT22;9641;51.494;6.670;2022-09-29T02:55:58;7.20;99.90
19017;DHT22;9641;51.494;6.670;2022-09-29T02:58:33;7.20;99.90
19017;DHT22;9641;51.494;6.670;2022-09-29T03:01:02;7.10;99.90
19017;DHT22;9641;51.494;6.670;2022-09-29T03:03:30;7.10;99.90
19017;DHT22;9641;51.494;6.670;2022-09-29T03:06:04;7.10;99.90
19017;DHT22;9641;51.494;6.670;2022-09-29T03:08:33;7.10;99.90
19017;DHT22;9641;51.494;6.670;2022-09-29T03:11:00;7.10;99.90
19017;DHT22;9641;51.494;6.670;2022-09-29T03:13:27;7.10;99.90
19017;DHT22;9641;51.494;6.670;2022-09-29T03:15:54;7.10;99.90
19017;DHT22;9641;51.494;6.670;2022-09-29T03:18:21;7.10;99.90
19017;DHT22;9641;51.494;6.670;2022-09-29T03:20:49;7.00;99.90
19017;DHT22;9641;51.494;6.670;2022-09-29T03:23:16;7.00;99.90
19017;DHT22;9641;51.494;6.670;2022-09-29T03:25:44;7.00;99.90
19017;DHT22;9641;51.494;6.670;2022-09-29T03:28:11;7.00;99.90
19017;DHT22;9641;51.494;6.670;2022-09-29T03:30:38;7.00;99.90
19017;DHT22;9641;51.494;6.670;2022-09-29T03:33:05;7.00;99.90
19017;DHT22;9641;51.494;6.670;2022-09-29T03:35:32;7.00;99.90
19017;DHT22;9641;51.494;6.670;2022-09-29T03:37:59;7.10;99.90
19017;DHT22;9641;51.494;6.670;2022-09-29T03:40:26;7.10;99.90
19017;DHT22;9641;51.494;6.670;2022-09-29T03:42:55;7.10;99.90
19017;DHT22;9641;51.494;6.670;2022-09-29T03:45:22;7.10;99.90
19017;DHT22;9641;51.494;6.670;2022-09-29T03:47:50;7.10;99.90
19017;DHT22;9641;51.494;6.670;2022-09-29T03:50:17;7.10;99.90
19017;DHT22;9641;51.494;6.670;2022-09-29T03:52:44;7.00;99.90
19017;DHT22;9641;51.494;6.670;2022-09-29T03:55:11;7.00;99.90
19017;DHT22;9641;51.494;6.670;2022-09-29T03:57:38;7.00;99.90
19017;DHT22;9641;51.494;6.670;2022-09-29T04:00:10;7.00;99.90
19017;DHT22;9641;51.494;6.670;2022-09-29T04:02:37;7.00;99.90
19017;DHT22;9641;51.494;6.670;2022-09-29T04:05:05;7.00;99.90
19017;DHT22;9641;51.494;6.670;2022-09-29T04:07:32;7.10;99.90
19017;DHT22;9641;51.494;6.670;2022-09-29T04:09:59;7.10;99.90
19017;DHT22;9641;51.494;6.670;2022-09-29T04:12:26;7.10;99.90
19017;DHT22;9641;51.494;6.670;2022-09-29T04:14:53;7.10;99.90
19017;DHT22;9641;51.494;6.670;2022-09-29T04:17:22;7.10;99.90
19017;DHT22;9641;51.494;6.670;2022-09-29T04:19:49;7.10;99.90
19017;DHT22;9641;51.494;6.670;2022-09-29T04:22:16;7.10;99.90
19017;DHT22;9641;51.494;6.670;2022-09-29T04:24:43;7.10;99.90
19017;DHT22;9641;51.494;6.670;2022-09-29T04:27:15;7.10;99.90
19017;DHT22;9641;51.494;6.670;2022-09-29T04:29:51;7.10;99.90
19017;DHT22;9641;51.494;6.670;2022-09-29T04:32:18;7.10;99.90
19017;DHT22;9641;51.494;6.670;2022-09-29T04:34:47;7.10;99.90
19017;DHT22;9641;51.494;6.670;2022-09-29T04:37:14;7.10;99.90
19017;DHT22;9641;51.494;6.670;2022-09-29T04:39:43;7.10;99.90
19017;DHT22;9641;51.494;6.670;2022-09-29T04:42:13;7.20;99.90
19017;DHT22;9641;51.494;6.670;2022-09-29T04:44:44;7.10;99.90
19017;DHT22;9641;51.494;6.670;2022-09-29T04:47:13;7.10;99.90
19017;DHT22;9641;51.494;6.670;2022-09-29T04:49:44;7.10;99.90
19017;DHT22;9641;51.494;6.670;2022-09-29T04:52:17;7.10;99.90
19017;DHT22;9641;51.494;6.670;2022-09-29T04:54:52;7.10;99.90
19017;DHT22;9641;51.494;6.670;2022-09-29T04:57:26;7.00;99.90
19017;DHT22;9641;51.494;6.670;2022-09-29T04:59:58;7.00;99.90
19017;DHT22;9641;51.494;6.670;2022-09-29T05:02:26;6.90;99.90
19017;DHT22;9641;51.494;6.670;2022-09-29T05:04:59;6.90;99.90
19017;DHT22;9641;51.494;6.670;2022-09-29T05:07:33;6.80;99.90
19017;DHT22;9641;51.494;6.670;2022-09-29T05:10:01;6.80;99.90
19017;DHT22;9641;51.494;6.670;2022-09-29T05:12:28;6.80;99.90
19017;DHT22;9641;51.494;6.670;2022-09-29T05:14:55;6.70;99.90
19017;DHT22;9641;51.494;6.670;2022-09-29T05:17:22;6.80;99.90
19017;DHT22;9641;51.494;6.670;2022-09-29T05:19:49;6.80;99.90
19017;DHT22;9641;51.494;6.670;2022-09-29T05:22:18;6.90;99.90
19017;DHT22;9641;51.494;6.670;2022-09-29T05:24:50;6.90;99.90
19017;DHT22;9641;51.494;6.670;2022-09-29T05:27:18;6.90;99.90
19017;DHT22;9641;51.494;6.670;2022-09-29T05:29:49;6.90;99.90
19017;DHT22;9641;51.494;6.670;2022-09-29T05:32:19;6.90;99.90
19017;DHT22;9641;51.494;6.670;2022-09-29T05:34:46;6.90;99.90
19017;DHT22;9641;51.494;6.670;2022-09-29T05:37:14;6.90;99.90
19017;DHT22;9641;51.494;6.670;2022-09-29T05:39:43;6.90;99.90
19017;DHT22;9641;51.494;6.670;2022-09-29T05:42:13;6.90;99.90
19017;DHT22;9641;51.494;6.670;2022-09-29T05:44:40;6.90;99.90
19017;DHT22;9641;51.494;6.670;2022-09-29T05:47:07;7.00;99.90
19017;DHT22;9641;51.494;6.670;2022-09-29T05:49:35;7.00;99.90
19017;DHT22;9641;51.494;6.670;2022-09-29T05:52:03;7.00;99.90
19017;DHT22;9641;51.494;6.670;2022-09-29T05:54:30;7.00;99.90
19017;DHT22;9641;51.494;6.670;2022-09-29T05:56:57;7.00;99.90
19017;DHT22;9641;51.494;6.670;2022-09-29T05:59:25;7.10;99.90
19017;DHT22;9641;51.494;6.670;2022-09-29T06:01:52;7.10;99.90
19017;DHT22;9641;51.494;6.670;2022-09-29T06:04:19;7.10;99.90
19017;DHT22;9641;51.494;6.670;2022-09-29T06:06:46;7.10;99.90
19017;DHT22;9641;51.494;6.670;2022-09-29T06:09:13;7.10;99.90
19017;DHT22;9641;51.494;6.670;2022-09-29T06:11:40;7.20;99.90
19017;DHT22;9641;51.494;6.670;2022-09-29T06:14:09;7.20;99.90
19017;DHT22;9641;51.494;6.670;2022-09-29T06:16:37;7.20;99.90
19017;DHT22;9641;51.494;6.670;2022-09-29T06:19:06;7.30;99.90
19017;DHT22;9641;51.494;6.670;2022-09-29T06:21:33;7.30;99.90
19017;DHT22;9641;51.494;6.670;2022-09-29T06:24:03;7.30;99.90
19017;DHT22;9641;51.494;6.670;2022-09-29T06:26:32;7.40;99.90
19017;DHT22;9641;51.494;6.670;2022-09-29T06:28:59;7.40;99.90
19017;DHT22;9641;51.494;6.670;2022-09-29T06:31:28;7.40;99.90
19017;DHT22;9641;51.494;6.670;2022-09-29T06:33:57;7.50;99.90
19017;DHT22;9641;51.494;6.670;2022-09-29T06:36:27;7.50;99.90
19017;DHT22;9641;51.494;6.670;2022-09-29T06:39:13;7.50;99.90
19017;DHT22;9641;51.494;6.670;2022-09-29T06:41:41;7.60;99.90
19017;DHT22;9641;51.494;6.670;2022-09-29T06:44:13;7.60;99.90
19017;DHT22;9641;51.494;6.670;2022-09-29T06:46:40;7.60;99.90
19017;DHT22;9641;51.494;6.670;2022-09-29T06:49:10;7.60;99.90
19017;DHT22;9641;51.494;6.670;2022-09-29T06:51:37;7.70;99.90
19017;DHT22;9641;51.494;6.670;2022-09-29T06:54:04;7.70;99.90
19017;DHT22;9641;51.494;6.670;2022-09-29T06:56:32;7.80;99.90
19017;DHT22;9641;51.494;6.670;2022-09-29T06:58:59;7.80;99.90
19017;DHT22;9641;51.494;6.670;2022-09-29T07:01:26;7.80;99.90
19017;DHT22;9641;51.494;6.670;2022-09-29T07:03:53;7.90;99.90
19017;DHT22;9641;51.494;6.670;2022-09-29T07:06:21;8.00;99.90
19017;DHT22;9641;51.494;6.670;2022-09-29T07:08:53;8.00;99.90
19017;DHT22;9641;51.494;6.670;2022-09-29T07:11:20;8.10;99.90
19017;DHT22;9641;51.494;6.670;2022-09-29T07:13:49;8.10;99.90
19017;DHT22;9641;51.494;6.670;2022-09-29T07:16:16;8.20;99.90
19017;DHT22;9641;51.494;6.670;2022-09-29T07:18:44;8.20;99.90
19017;DHT22;9641;51.494;6.670;2022-09-29T07:21:12;8.30;99.90
19017;DHT22;9641;51.494;6.670;2022-09-29T07:23:44;8.30;99.90
19017;DHT22;9641;51.494;6.670;2022-09-29T07:26:11;8.40;99.90
19017;DHT22;9641;51.494;6.670;2022-09-29T07:28:39;8.40;99.90
19017;DHT22;9641;51.494;6.670;2022-09-29T07:31:07;8.50;99.90
19017;DHT22;9641;51.494;6.670;2022-09-29T07:33:35;8.50;99.90
19017;DHT22;9641;51.494;6.670;2022-09-29T07:36:03;8.60;99.90
19017;DHT22;9641;51.494;6.670;2022-09-29T07:38:30;8.60;99.90
19017;DHT22;9641;51.494;6.670;2022-09-29T07:41:00;8.70;99.90
19017;DHT22;9641;51.494;6.670;2022-09-29T07:43:32;8.70;99.90
19017;DHT22;9641;51.494;6.670;2022-09-29T07:46:02;8.70;99.90
19017;DHT22;9641;51.494;6.670;2022-09-29T07:48:30;8.70;99.90
19017;DHT22;9641;51.494;6.670;2022-09-29T07:51:01;8.70;99.90
19017;DHT22;9641;51.494;6.670;2022-09-29T07:53:28;8.80;99.90
19017;DHT22;9641;51.494;6.670;2022-09-29T07:55:55;8.90;99.90
19017;DHT22;9641;51.494;6.670;2022-09-29T07:58:23;8.90;99.90
19017;DHT22;9641;51.494;6.670;2022-09-29T08:00:55;9.00;99.90
19017;DHT22;9641;51.494;6.670;2022-09-29T08:03:25;9.10;99.90
19017;DHT22;9641;51.494;6.670;2022-09-29T08:05:55;9.10;99.90
19017;DHT22;9641;51.494;6.670;2022-09-29T08:08:23;9.10;99.90
19017;DHT22;9641;51.494;6.670;2022-09-29T08:11:01;9.20;99.90
19017;DHT22;9641;51.494;6.670;2022-09-29T08:13:30;9.20;99.90
19017;DHT22;9641;51.494;6.670;2022-09-29T08:15:58;9.30;99.90
19017;DHT22;9641;51.494;6.670;2022-09-29T08:18:26;9.30;99.90
19017;DHT22;9641;51.494;6.670;2022-09-29T08:20:54;9.30;99.90
19017;DHT22;9641;51.494;6.670;2022-09-29T08:23:21;9.40;99.90
19017;DHT22;9641;51.494;6.670;2022-09-29T08:25:49;9.40;99.90
19017;DHT22;9641;51.494;6.670;2022-09-29T08:28:16;9.40;99.90
19017;DHT22;9641;51.494;6.670;2022-09-29T08:30:45;9.50;99.90
19017;DHT22;9641;51.494;6.670;2022-09-29T08:33:12;9.50;99.90
19017;DHT22;9641;51.494;6.670;2022-09-29T08:35:40;9.60;99.90
19017;DHT22;9641;51.494;6.670;2022-09-29T08:38:07;9.60;99.90
19017;DHT22;9641;51.494;6.670;2022-09-29T08:40:34;9.70;99.90
19017;DHT22;9641;51.494;6.670;2022-09-29T08:43:09;9.70;99.90
19017;DHT22;9641;51.494;6.670;2022-09-29T08:45:42;9.80;99.90
19017;DHT22;9641;51.494;6.670;2022-09-29T08:48:15;9.90;99.90
19017;DHT22;9641;51.494;6.670;2022-09-29T08:50:47;9.90;99.90
19017;DHT22;9641;51.494;6.670;2022-09-29T08:53:18;10.00;99.90
19017;DHT22;9641;51.494;6.670;2022-09-29T08:55:51;10.00;99.90
19017;DHT22;9641;51.494;6.670;2022-09-29T08:58:19;10.00;99.90
19017;DHT22;9641;51.494;6.670;2022-09-29T09:00:55;10.00;99.90
19017;DHT22;9641;51.494;6.670;2022-09-29T09:06:26;10.20;99.90
19017;DHT22;9641;51.494;6.670;2022-09-29T09:09:09;10.30;99.90
19017;DHT22;9641;51.494;6.670;2022-09-29T09:11:52;10.40;99.90
19017;DHT22;9641;51.494;6.670;2022-09-29T09:14:31;10.50;99.90
19017;DHT22;9641;51.494;6.670;2022-09-29T09:17:11;10.50;99.90
19017;DHT22;9641;51.494;6.670;2022-09-29T09:19:56;10.50;99.90
19017;DHT22;9641;51.494;6.670;2022-09-29T09:22:35;10.60;99.90
19017;DHT22;9641;51.494;6.670;2022-09-29T09:25:16;10.70;99.90
19017;DHT22;9641;51.494;6.670;2022-09-29T09:27:47;10.80;99.90
19017;DHT22;9641;51.494;6.670;2022-09-29T09:30:16;10.90;99.90
19017;DHT22;9641;51.494;6.670;2022-09-29T09:32:47;10.90;99.90
19017;DHT22;9641;51.494;6.670;2022-09-29T09:35:26;11.00;99.90
19017;DHT22;9641;51.494;6.670;2022-09-29T09:37:59;11.10;99.90
19017;DHT22;9641;51.494;6.670;2022-09-29T09:40:35;11.10;99.90
19017;DHT22;9641;51.494;6.670;2022-09-29T09:43:06;11.20;99.90
19017;DHT22;9641;51.494;6.670;2022-09-29T09:45:38;11.30;99.90
19017;DHT22;9641;51.494;6.670;2022-09-29T09:48:12;11.40;99.90
19017;DHT22;9641;51.494;6.670;2022-09-29T09:50:41;11.50;99.90
19017;DHT22;9641;51.494;6.670;2022-09-29T09:53:13;11.50;99.90
19017;DHT22;9641;51.494;6.670;2022-09-29T09:55:41;11.60;99.90
19017;DHT22;9641;51.494;6.670;2022-09-29T09:58:23;11.70;99.90
19017;DHT22;9641;51.494;6.670;2022-09-29T10:00:57;11.70;99.90
19017;DHT22;9641;51.494;6.670;2022-09-29T10:03:26;11.90;99.90
19017;DHT22;9641;51.494;6.670;2022-09-29T10:05:54;12.00;99.90
19017;DHT22;9641;51.494;6.670;2022-09-29T10:08:26;12.10;99.90
19017;DHT22;9641;51.494;6.670;2022-09-29T10:10:54;12.20;99.90
19017;DHT22;9641;51.494;6.670;2022-09-29T10:13:24;12.30;99.90
19017;DHT22;9641;51.494;6.670;2022-09-29T10:15:54;12.50;99.90
19017;DHT22;9641;51.494;6.670;2022-09-29T10:18:25;12.60;99.90
19017;DHT22;9641;51.494;6.670;2022-09-29T10:20:53;12.70;99.90
19017;DHT22;9641;51.494;6.670;2022-09-29T10:23:31;13.00;99.90
19017;DHT22;9641;51.494;6.670;2022-09-29T10:26:07;13.20;99.90
19017;DHT22;9641;51.494;6.670;2022-09-29T10:28:41;13.30;99.90
19017;DHT22;9641;51.494;6.670;2022-09-29T10:31:18;13.40;1.00
19017;DHT22;9641;51.494;6.670;2022-09-29T10:33:48;13.50;1.00
19017;DHT22;9641;51.494;6.670;2022-09-29T10:36:17;13.50;1.00
19017;DHT22;9641;51.494;6.670;2022-09-29T10:38:50;13.50;1.00
19017;DHT22;9641;51.494;6.670;2022-09-29T10:41:18;13.50;1.00
19017;DHT22;9641;51.494;6.670;2022-09-29T10:43:47;13.70;1.00
19017;DHT22;9641;51.494;6.670;2022-09-29T10:46:45;13.80;1.00
19017;DHT22;9641;51.494;6.670;2022-09-29T10:49:15;13.80;25.70
19017;DHT22;9641;51.494;6.670;2022-09-29T10:51:52;13.80;1.00
19017;DHT22;9641;51.494;6.670;2022-09-29T10:54:23;13.70;1.00
19017;DHT22;9641;51.494;6.670;2022-09-29T10:56:52;13.40;1.00
19017;DHT22;9641;51.494;6.670;2022-09-29T10:59:20;13.20;99.90
19017;DHT22;9641;51.494;6.670;2022-09-29T11:01:49;13.10;1.00
19017;DHT22;9641;51.494;6.670;2022-09-29T11:04:21;13.10;1.00
19017;DHT22;9641;51.494;6.670;2022-09-29T11:06:50;13.10;1.00
19017;DHT22;9641;51.494;6.670;2022-09-29T11:09:29;13.30;1.00
19017;DHT22;9641;51.494;6.670;2022-09-29T11:12:01;13.50;1.00
19017;DHT22;9641;51.494;6.670;2022-09-29T11:14:29;13.60;1.00
19017;DHT22;9641;51.494;6.670;2022-09-29T11:17:00;13.70;52.50
19017;DHT22;9641;51.494;6.670;2022-09-29T11:19:29;14.00;1.00
19017;DHT22;9641;51.494;6.670;2022-09-29T11:22:15;14.50;1.00
19017;DHT22;9641;51.494;6.670;2022-09-29T11:25:14;15.20;99.90
19017;DHT22;9641;51.494;6.670;2022-09-29T11:27:56;15.70;1.00
19017;DHT22;9641;51.494;6.670;2022-09-29T11:30:44;16.00;99.90
19017;DHT22;9641;51.494;6.670;2022-09-29T11:33:24;16.20;1.00
19017;DHT22;9641;51.494;6.670;2022-09-29T11:35:59;16.10;1.00
19017;DHT22;9641;51.494;6.670;2022-09-29T11:38:45;15.60;99.90
19017;DHT22;9641;51.494;6.670;2022-09-29T11:41:43;15.30;1.00
19017;DHT22;9641;51.494;6.670;2022-09-29T11:44:28;15.20;1.00
19017;DHT22;9641;51.494;6.670;2022-09-29T11:47:06;15.70;99.90
19017;DHT22;9641;51.494;6.670;2022-09-29T11:49:48;16.10;99.90
19017;DHT22;9641;51.494;6.670;2022-09-29T11:52:37;16.20;1.00
19017;DHT22;9641;51.494;6.670;2022-09-29T11:55:23;15.90;99.90
19017;DHT22;9641;51.494;6.670;2022-09-29T11:58:01;15.60;99.90
19017;DHT22;9641;51.494;6.670;2022-09-29T12:00:50;15.90;1.00
19017;DHT22;9641;51.494;6.670;2022-09-29T12:03:32;16.60;99.90
19017;DHT22;9641;51.494;6.670;2022-09-29T12:06:31;17.20;99.90
19017;DHT22;9641;51.494;6.670;2022-09-29T12:09:10;16.70;99.90
19017;DHT22;9641;51.494;6.670;2022-09-29T12:11:49;16.20;99.90
19017;DHT22;9641;51.494;6.670;2022-09-29T12:14:23;15.60;99.90
19017;DHT22;9641;51.494;6.670;2022-09-29T12:16:53;15.30;1.00
19017;DHT22;9641;51.494;6.670;2022-09-29T12:19:25;15.30;99.90
19017;DHT22;9641;51.494;6.670;2022-09-29T12:21:56;15.60;1.00
19017;DHT22;9641;51.494;6.670;2022-09-29T12:24:33;15.60;1.00
19017;DHT22;9641;51.494;6.670;2022-09-29T12:27:03;15.30;1.00
19017;DHT22;9641;51.494;6.670;2022-09-29T12:29:36;15.10;99.90
19017;DHT22;9641;51.494;6.670;2022-09-29T12:32:10;15.80;1.00
19017;DHT22;9641;51.494;6.670;2022-09-29T12:34:44;16.90;99.90
19017;DHT22;9641;51.494;6.670;2022-09-29T12:37:17;17.90;99.90
19017;DHT22;9641;51.494;6.670;2022-09-29T12:39:50;19.10;99.90
19017;DHT22;9641;51.494;6.670;2022-09-29T12:42:28;19.90;99.90
19017;DHT22;9641;51.494;6.670;2022-09-29T12:45:02;19.80;99.90
19017;DHT22;9641;51.494;6.670;2022-09-29T12:50:30;19.90;99.90
19017;DHT22;9641;51.494;6.670;2022-09-29T12:53:04;20.70;99.90
19017;DHT22;9641;51.494;6.670;2022-09-29T12:55:42;21.70;90.90
19017;DHT22;9641;51.494;6.670;2022-09-29T12:58:18;22.40;69.40
19017;DHT22;9641;51.494;6.670;2022-09-29T13:00:53;22.60;41.50
19017;DHT22;9641;51.494;6.670;2022-09-29T13:03:45;22.80;18.90
19017;DHT22;9641;51.494;6.670;2022-09-29T13:06:48;22.50;1.00
19017;DHT22;9641;51.494;6.670;2022-09-29T13:09:58;23.10;1.00
19017;DHT22;9641;51.494;6.670;2022-09-29T13:15:26;24.30;1.00
19017;DHT22;9641;51.494;6.670;2022-09-29T13:18:10;24.60;1.00
19017;DHT22;9641;51.494;6.670;2022-09-29T13:20:49;23.80;1.00
19017;DHT22;9641;51.494;6.670;2022-09-29T13:23:46;22.90;1.00
19017;DHT22;9641;51.494;6.670;2022-09-29T13:26:35;23.50;1.00
19017;DHT22;9641;51.494;6.670;2022-09-29T13:29:09;24.70;1.00
19017;DHT22;9641;51.494;6.670;2022-09-29T13:31:38;25.80;1.00
19017;DHT22;9641;51.494;6.670;2022-09-29T13:34:19;26.60;1.00
19017;DHT22;9641;51.494;6.670;2022-09-29T13:36:47;27.00;1.00
19017;DHT22;9641;51.494;6.670;2022-09-29T13:39:21;27.70;1.00
19017;DHT22;9641;51.494;6.670;2022-09-29T13:41:52;27.70;1.00
19017;DHT22;9641;51.494;6.670;2022-09-29T13:44:23;27.90;1.00
19017;DHT22;9641;51.494;6.670;2022-09-29T13:46:52;27.90;1.00
19017;DHT22;9641;51.494;6.670;2022-09-29T13:49:29;27.60;1.00
19017;DHT22;9641;51.494;6.670;2022-09-29T13:51:58;27.40;1.00
19017;DHT22;9641;51.494;6.670;2022-09-29T13:54:33;27.00;1.00
19017;DHT22;9641;51.494;6.670;2022-09-29T14:00:18;27.50;1.00
19017;DHT22;9641;51.494;6.670;2022-09-29T14:03:00;27.80;1.00
19017;DHT22;9641;51.494;6.670;2022-09-29T14:05:54;28.00;1.00
19017;DHT22;9641;51.494;6.670;2022-09-29T14:08:35;27.80;1.00
19017;DHT22;9641;51.494;6.670;2022-09-29T14:11:11;27.80;1.00
19017;DHT22;9641;51.494;6.670;2022-09-29T14:13:44;27.40;1.00
19017;DHT22;9641;51.494;6.670;2022-09-29T14:16:30;27.50;1.00
19017;DHT22;9641;51.494;6.670;2022-09-29T14:19:03;27.80;1.00
19017;DHT22;9641;51.494;6.670;2022-09-29T14:21:51;28.10;1.00
19017;DHT22;9641;51.494;6.670;2022-09-29T14:24:41;28.50;1.00
19017;DHT22;9641;51.494;6.670;2022-09-29T14:27:30;29.10;1.00
19017;DHT22;9641;51.494;6.670;2022-09-29T14:30:17;29.30;1.00
19017;DHT22;9641;51.494;6.670;2022-09-29T14:32:51;29.30;1.00
19017;DHT22;9641;51.494;6.670;2022-09-29T14:35:27;29.80;1.00
19017;DHT22;9641;51.494;6.670;2022-09-29T14:38:03;30.00;1.00
19017;DHT22;9641;51.494;6.670;2022-09-29T14:40:32;30.20;1.00
19017;DHT22;9641;51.494;6.670;2022-09-29T14:43:17;30.20;1.00
19017;DHT22;9641;51.494;6.670;2022-09-29T14:46:17;30.60;1.00
19017;DHT22;9641;51.494;6.670;2022-09-29T14:49:28;29.40;1.00
19017;DHT22;9641;51.494;6.670;2022-09-29T14:52:26;29.10;1.00
19017;DHT22;9641;51.494;6.670;2022-09-29T14:55:05;29.00;1.00
19017;DHT22;9641;51.494;6.670;2022-09-29T14:57:45;29.20;1.00
19017;DHT22;9641;51.494;6.670;2022-09-29T15:00:18;29.70;1.00
19017;DHT22;9641;51.494;6.670;2022-09-29T15:02:50;29.60;1.00
19017;DHT22;9641;51.494;6.670;2022-09-29T15:05:25;29.10;1.00
19017;DHT22;9641;51.494;6.670;2022-09-29T15:07:55;28.90;1.00
19017;DHT22;9641;51.494;6.670;2022-09-29T15:10:26;28.30;1.00
19017;DHT22;9641;51.494;6.670;2022-09-29T15:13:14;27.20;1.00
19017;DHT22;9641;51.494;6.670;2022-09-29T15:15:47;24.60;1.00
19017;DHT22;9641;51.494;6.670;2022-09-29T15:18:32;22.60;1.00
19017;DHT22;9641;51.494;6.670;2022-09-29T15:21:13;21.20;1.00
19017;DHT22;9641;51.494;6.670;2022-09-29T15:24:01;20.00;1.00
19017;DHT22;9641;51.494;6.670;2022-09-29T15:26:52;19.10;1.00
19017;DHT22;9641;51.494;6.670;2022-09-29T15:29:20;18.30;1.00
19017;DHT22;9641;51.494;6.670;2022-09-29T15:31:48;17.80;1.00
19017;DHT22;9641;51.494;6.670;2022-09-29T15:34:18;17.50;1.00
19017;DHT22;9641;51.494;6.670;2022-09-29T15:36:49;17.30;1.00
19017;DHT22;9641;51.494;6.670;2022-09-29T15:39:41;17.00;1.00
19017;DHT22;9641;51.494;6.670;2022-09-29T15:42:15;16.60;1.00
19017;DHT22;9641;51.494;6.670;2022-09-29T15:44:46;16.40;1.00
19017;DHT22;9641;51.494;6.670;2022-09-29T15:47:27;16.20;1.00
19017;DHT22;9641;51.494;6.670;2022-09-29T15:49:55;16.00;1.00
19017;DHT22;9641;51.494;6.670;2022-09-29T15:52:22;16.00;1.00
19017;DHT22;9641;51.494;6.670;2022-09-29T15:54:56;16.00;1.00
19017;DHT22;9641;51.494;6.670;2022-09-29T15:57:43;16.00;1.00
19017;DHT22;9641;51.494;6.670;2022-09-29T16:03:29;16.00;1.00
19017;DHT22;9641;51.494;6.670;2022-09-29T16:06:15;16.20;1.00
19017;DHT22;9641;51.494;6.670;2022-09-29T16:08:54;16.50;1.00
19017;DHT22;9641;51.494;6.670;2022-09-29T16:11:24;16.90;1.00
19017;DHT22;9641;51.494;6.670;2022-09-29T16:16:50;17.60;1.00
19017;DHT22;9641;51.494;6.670;2022-09-29T16:19:22;19.80;1.00
19017;DHT22;9641;51.494;6.670;2022-09-29T16:21:55;19.90;1.00
19017;DHT22;9641;51.494;6.670;2022-09-29T16:24:27;19.50;1.00
19017;DHT22;9641;51.494;6.670;2022-09-29T16:27:04;18.70;1.00
19017;DHT22;9641;51.494;6.670;2022-09-29T16:29:35;17.80;1.00
19017;DHT22;9641;51.494;6.670;2022-09-29T16:32:35;17.10;1.00
19017;DHT22;9641;51.494;6.670;2022-09-29T16:38:09;15.90;1.00
19017;DHT22;9641;51.494;6.670;2022-09-29T16:40:43;15.50;99.90
19017;DHT22;9641;51.494;6.670;2022-09-29T16:43:19;15.20;1.00
19017;DHT22;9641;51.494;6.670;2022-09-29T16:45:50;14.90;99.90
19017;DHT22;9641;51.494;6.670;2022-09-29T16:48:21;14.70;1.00
19017;DHT22;9641;51.494;6.670;2022-09-29T16:50:54;14.30;1.00
19017;DHT22;9641;51.494;6.670;2022-09-29T16:53:25;14.10;1.00
19017;DHT22;9641;51.494;6.670;2022-09-29T16:55:57;14.00;1.00
19017;DHT22;9641;51.494;6.670;2022-09-29T16:58:27;13.80;1.00
19017;DHT22;9641;51.494;6.670;2022-09-29T17:00:55;13.70;1.00
19017;DHT22;9641;51.494;6.670;2022-09-29T17:03:23;13.50;1.00